Terminal Aerodrome Forecast
Issued by NWS

Home | Current Version | Previous Version | Text Only | Print | Product List | Glossary On
Versions: 1 2 3 4 5 6 7 8 9 10 11 12 13 14 15 16 17 18 19 20
000
FTUS46 KLOX 021739
TAFBUR
TAF
KBUR 021739Z 0218/0318 VRB03KT P6SM BKN023
     FM021900 17008KT P6SM SCT250
     FM030700 VRB03KT P6SM BKN019
     FM031200 VRB03KT 6SM HZ OVC013=

USA.gov is the U.S. government's official web portal to all federal, state and local government web resources and services.